createdAt,value
2022-12-19T00:01:18.737Z,-2.49
2022-12-19T00:04:35.598Z,-2.50
2022-12-19T00:07:59.702Z,-2.46
2022-12-19T00:11:19.727Z,-2.48
2022-12-19T00:14:41.609Z,-2.47
2022-12-19T00:18:04.755Z,-2.48
2022-12-19T00:21:28.630Z,-2.45
2022-12-19T00:24:49.687Z,-2.46
2022-12-19T00:28:12.614Z,-2.46
2022-12-19T00:31:23.830Z,-2.45
2022-12-19T00:34:46.610Z,-2.40
2022-12-19T00:38:14.564Z,-2.41
2022-12-19T00:41:41.734Z,-2.32
2022-12-19T00:44:55.700Z,-2.46
2022-12-19T00:48:21.539Z,-2.47
2022-12-19T00:51:40.803Z,-2.86
2022-12-19T00:55:02.902Z,-2.77
2022-12-19T00:58:19.740Z,-2.86
2022-12-19T01:01:30.873Z,-2.82
2022-12-19T01:04:39.858Z,-2.65
2022-12-19T01:07:52.641Z,-2.61
2022-12-19T01:11:12.271Z,-2.46
2022-12-19T01:14:28.553Z,-2.50
2022-12-19T01:17:49.471Z,-2.44
2022-12-19T01:21:01.127Z,-2.43
2022-12-19T01:24:10.512Z,-2.24
2022-12-19T01:27:20.812Z,-2.17
2022-12-19T01:30:24.733Z,-2.03
2022-12-19T01:33:43.075Z,-1.94
2022-12-19T01:36:48.914Z,-2.24
2022-12-19T01:39:52.596Z,-2.12
2022-12-19T01:43:15.678Z,-2.08
2022-12-19T01:46:40.437Z,-2.06
2022-12-19T01:49:45.431Z,-2.08
2022-12-19T01:52:53.092Z,-2.09
2022-12-19T01:56:20.849Z,-2.00
2022-12-19T01:59:43.569Z,-1.98
2022-12-19T02:02:58.027Z,-1.94
2022-12-19T02:06:08.999Z,-1.95
2022-12-19T02:09:28.636Z,-1.94
2022-12-19T02:12:48.520Z,-2.20
2022-12-19T02:16:34.318Z,-2.16
2022-12-19T02:20:13.592Z,-2.13
2022-12-19T02:24:00.602Z,-2.03
2022-12-19T02:27:54.673Z,-2.23
2022-12-19T02:31:34.282Z,-2.14
2022-12-19T02:35:18.258Z,-2.06
2022-12-19T02:38:50.230Z,-2.12
2022-12-19T02:42:20.503Z,-2.20
2022-12-19T02:45:42.742Z,-2.39
2022-12-19T02:48:59.440Z,-2.08
2022-12-19T02:52:26.494Z,-2.02
2022-12-19T02:55:57.586Z,-2.08
2022-12-19T02:59:21.684Z,-2.41
2022-12-19T03:02:49.302Z,-2.04
2022-12-19T03:06:18.933Z,-1.94
2022-12-19T03:09:46.831Z,-1.96
2022-12-19T03:13:34.240Z,-1.79
2022-12-19T03:16:52.479Z,-1.64
2022-12-19T03:20:15.957Z,-1.63
2022-12-19T03:23:37.911Z,-1.55
2022-12-19T03:27:03.383Z,-1.59
2022-12-19T03:30:20.949Z,-1.51
2022-12-19T03:33:42.128Z,-1.46
2022-12-19T03:37:10.108Z,-1.46
2022-12-19T03:40:28.062Z,-1.45
2022-12-19T03:43:50.984Z,-1.36
2022-12-19T03:47:17.308Z,-1.38
2022-12-19T03:50:42.461Z,-1.33
2022-12-19T03:54:14.230Z,-1.27
2022-12-19T03:57:54.609Z,-1.28
2022-12-19T04:00:58.666Z,-1.21
2022-12-19T04:04:07.897Z,-1.21
2022-12-19T04:07:28.185Z,-1.28
2022-12-19T04:10:58.165Z,-1.32
2022-12-19T04:14:20.173Z,-1.10
2022-12-19T04:18:01.260Z,-1.16
2022-12-19T04:21:14.382Z,-1.10
2022-12-19T04:24:32.744Z,-1.06
2022-12-19T04:27:55.583Z,-1.12
2022-12-19T04:30:59.321Z,-1.26
2022-12-19T04:34:23.116Z,-1.15
2022-12-19T04:37:50.102Z,-1.11
2022-12-19T04:40:53.187Z,-1.01
2022-12-19T04:43:56.145Z,-1.13
2022-12-19T04:47:09.648Z,-1.15
2022-12-19T04:50:29.515Z,-1.06
2022-12-19T04:53:42.426Z,-1.18
2022-12-19T04:56:53.388Z,-1.19
2022-12-19T04:59:58.497Z,-1.25
2022-12-19T05:03:05.650Z,-1.05
2022-12-19T05:06:23.141Z,-0.98
2022-12-19T05:09:46.035Z,-0.91
2022-12-19T05:13:03.773Z,-0.95
2022-12-19T05:16:15.169Z,-1.04
2022-12-19T05:19:22.148Z,-1.06
2022-12-19T05:22:35.875Z,-1.06
2022-12-19T05:26:23.267Z,-1.03
2022-12-19T05:29:27.088Z,-1.09
2022-12-19T05:32:38.525Z,-0.91
2022-12-19T05:35:59.658Z,-0.73
2022-12-19T05:39:20.452Z,-0.66
2022-12-19T05:42:36.907Z,-0.75
2022-12-19T05:45:57.726Z,-0.78
2022-12-19T05:49:18.421Z,-0.65
2022-12-19T05:52:42.743Z,-0.66
2022-12-19T05:56:15.732Z,-0.67
2022-12-19T05:59:35.602Z,-0.59
2022-12-19T06:02:58.774Z,-0.58
2022-12-19T06:06:26.270Z,-0.52
2022-12-19T06:09:43.163Z,-0.57
2022-12-19T06:12:53.531Z,-0.62
2022-12-19T06:15:59.925Z,-0.51
2022-12-19T06:19:22.697Z,-0.49
2022-12-19T06:22:39.625Z,-0.52
2022-12-19T06:25:49.359Z,-0.66
2022-12-19T06:29:14.603Z,-0.66
2022-12-19T06:32:38.385Z,-0.62
2022-12-19T06:35:57.467Z,-0.44
2022-12-19T06:39:20.300Z,-0.50
2022-12-19T06:42:36.949Z,-0.41
2022-12-19T06:45:54.750Z,-0.32
2022-12-19T06:49:40.990Z,-0.31
2022-12-19T06:53:15.410Z,-0.28
2022-12-19T06:56:20.378Z,-0.54
2022-12-19T06:59:26.932Z,-0.50
2022-12-19T07:02:42.712Z,-0.62
2022-12-19T07:06:04.750Z,-0.57
2022-12-19T07:09:40.573Z,-0.46
2022-12-19T07:12:54.589Z,-0.65
2022-12-19T07:16:14.581Z,-0.47
2022-12-19T07:19:26.293Z,-0.61
2022-12-19T07:22:35.100Z,-0.65
2022-12-19T07:25:42.363Z,-0.55
2022-12-19T07:28:49.384Z,-0.69
2022-12-19T07:32:03.748Z,-0.72
2022-12-19T07:35:10.324Z,-0.85
2022-12-19T07:38:14.937Z,-0.73
2022-12-19T07:41:37.468Z,-0.65
2022-12-19T07:45:43.854Z,-0.54
2022-12-19T07:49:01.078Z,-0.66
2022-12-19T07:52:16.038Z,-0.62
2022-12-19T07:55:25.779Z,-0.69
2022-12-19T07:58:31.891Z,-0.90
2022-12-19T08:01:52.420Z,-1.03
2022-12-19T08:05:02.474Z,-1.01
2022-12-19T08:08:05.851Z,-1.00
2022-12-19T08:11:14.595Z,-0.95
2022-12-19T08:14:30.761Z,-0.76
2022-12-19T08:17:38.941Z,-0.73
2022-12-19T08:20:48.668Z,-0.99
2022-12-19T08:23:56.050Z,-0.97
2022-12-19T08:27:09.611Z,-0.78
2022-12-19T08:30:32.245Z,-0.82
2022-12-19T08:33:45.165Z,-0.56
2022-12-19T08:37:09.302Z,-0.47
2022-12-19T08:40:31.477Z,-0.46
2022-12-19T08:44:57.074Z,-0.38
2022-12-19T08:48:33.115Z,-0.50
2022-12-19T08:51:48.553Z,-0.51
2022-12-19T08:54:56.300Z,-0.15
2022-12-19T08:58:13.382Z,-0.12
2022-12-19T09:01:29.215Z,-0.26
2022-12-19T09:14:21.039Z,0.04
2022-12-19T09:17:37.448Z,-0.32
2022-12-19T09:20:58.764Z,-0.40
2022-12-19T09:24:21.218Z,-0.47
2022-12-19T09:28:01.223Z,-0.53
2022-12-19T09:31:10.641Z,-0.31
2022-12-19T09:34:17.677Z,-0.32
2022-12-19T09:37:21.397Z,-0.29
2022-12-19T09:40:29.865Z,-0.29
2022-12-19T09:44:01.203Z,-0.06
2022-12-19T09:47:23.967Z,0.18
2022-12-19T09:50:44.148Z,0.16
2022-12-19T09:54:13.316Z,0.10
2022-12-19T09:57:37.281Z,-0.08
2022-12-19T10:01:03.279Z,-0.10
2022-12-19T10:04:13.506Z,0.02
2022-12-19T10:07:48.454Z,0.32
2022-12-19T10:12:42.573Z,0.28
2022-12-19T10:14:56.187Z,0.58
2022-12-19T10:18:32.597Z,0.51
2022-12-19T10:22:39.025Z,0.73
2022-12-19T10:26:15.311Z,1.26
2022-12-19T10:29:38.252Z,1.29
2022-12-19T10:33:20.323Z,1.23
2022-12-19T10:36:48.717Z,1.33
2022-12-19T10:40:27.728Z,1.48
2022-12-19T10:44:35.536Z,1.54
2022-12-19T10:48:15.357Z,1.76
2022-12-19T10:51:28.229Z,1.77
2022-12-19T10:54:41.960Z,1.83
2022-12-19T10:58:01.931Z,1.62
2022-12-19T11:01:29.218Z,1.61
2022-12-19T11:04:50.889Z,1.75
2022-12-19T11:08:14.614Z,1.87
2022-12-19T11:13:09.552Z,1.85
2022-12-19T11:17:24.239Z,1.95
2022-12-19T11:29:17.074Z,1.64
2022-12-19T11:29:34.556Z,1.18
2022-12-19T11:30:26.152Z,1.48
2022-12-19T11:33:18.667Z,1.70
2022-12-19T11:36:39.884Z,1.76
2022-12-19T11:40:10.924Z,1.77
2022-12-19T11:43:45.475Z,1.45
2022-12-19T11:47:32.822Z,1.32
2022-12-19T11:50:50.304Z,1.65
2022-12-19T11:54:31.038Z,1.82
2022-12-19T11:57:39.475Z,1.93
2022-12-19T12:01:02.287Z,2.11
2022-12-19T12:04:31.553Z,1.87
2022-12-19T12:08:52.176Z,1.89
2022-12-19T12:19:33.832Z,1.68
2022-12-19T12:26:38.723Z,1.74
2022-12-19T12:31:08.956Z,1.66
2022-12-19T12:31:43.764Z,1.97
2022-12-19T12:31:55.173Z,1.59
2022-12-19T12:32:04.540Z,1.58
2022-12-19T12:35:45.383Z,1.60
2022-12-19T12:39:10.947Z,1.57
2022-12-19T12:42:56.571Z,1.65
2022-12-19T12:46:45.786Z,1.17
2022-12-19T12:50:17.528Z,1.29
2022-12-19T12:53:35.793Z,1.14
2022-12-19T12:56:55.939Z,1.46
2022-12-19T13:00:30.682Z,1.50
2022-12-19T13:03:46.733Z,1.39
2022-12-19T13:07:08.690Z,0.92
2022-12-19T13:10:31.361Z,0.78
2022-12-19T13:13:58.683Z,0.72
2022-12-19T13:17:06.966Z,0.51
2022-12-19T13:20:32.447Z,0.44
2022-12-19T13:23:47.812Z,0.50
2022-12-19T13:27:07.479Z,0.73
2022-12-19T13:30:29.455Z,0.49
2022-12-19T13:33:56.189Z,0.63
2022-12-19T13:39:48.931Z,0.44
2022-12-19T13:41:01.535Z,0.65
2022-12-19T13:44:09.243Z,0.83
2022-12-19T13:47:23.467Z,0.83
2022-12-19T13:50:44.523Z,0.98
2022-12-19T13:54:00.072Z,0.79
2022-12-19T13:57:09.550Z,0.46
2022-12-19T14:00:18.579Z,0.46
2022-12-19T14:03:32.930Z,0.48
2022-12-19T14:06:53.334Z,0.53
2022-12-19T14:11:33.219Z,0.59
2022-12-19T14:14:23.856Z,0.72
2022-12-19T14:17:34.460Z,0.41
2022-12-19T14:22:04.926Z,0.32
2022-12-19T14:24:17.835Z,0.46
2022-12-19T14:28:19.305Z,0.43
2022-12-19T14:30:59.566Z,0.28
2022-12-19T14:34:47.289Z,0.22
2022-12-19T14:39:19.451Z,0.28
2022-12-19T14:41:09.229Z,0.16
2022-12-19T14:51:42.930Z,0.06
2022-12-19T14:54:00.624Z,0.00
2022-12-19T14:54:40.844Z,-0.06
2022-12-19T14:56:16.534Z,-0.13
2022-12-19T14:58:53.529Z,-0.08
2022-12-19T15:02:32.451Z,-0.07
2022-12-19T15:05:56.195Z,-0.26
2022-12-19T15:10:58.805Z,-0.43
2022-12-19T15:14:54.393Z,-0.24
2022-12-19T15:16:46.598Z,-0.34
2022-12-19T15:19:55.661Z,-0.29
2022-12-19T15:23:05.243Z,-0.44
2022-12-19T15:26:19.999Z,-0.36
2022-12-19T15:29:26.993Z,-0.38
2022-12-19T15:32:47.133Z,-0.39
2022-12-19T15:36:07.069Z,-0.41
2022-12-19T15:39:24.929Z,-0.42
2022-12-19T15:42:32.437Z,-0.48
2022-12-19T15:45:39.295Z,-0.53
2022-12-19T15:48:45.796Z,-0.43
2022-12-19T15:51:50.923Z,-0.58
2022-12-19T15:55:04.420Z,-0.47
2022-12-19T15:58:12.363Z,-0.47
2022-12-19T16:01:25.423Z,-0.39
2022-12-19T16:04:31.658Z,-0.52
2022-12-19T16:07:35.274Z,-0.52
2022-12-19T16:10:40.733Z,-0.40
2022-12-19T16:14:00.969Z,-0.48
2022-12-19T16:17:37.887Z,-0.51
2022-12-19T16:20:54.075Z,-0.51
2022-12-19T16:24:07.683Z,-0.56
2022-12-19T16:27:37.963Z,-0.66
2022-12-19T16:31:05.962Z,-0.58
2022-12-19T16:34:17.710Z,-0.32
2022-12-19T16:37:40.892Z,-0.18
2022-12-19T16:40:58.643Z,-0.51
2022-12-19T16:44:24.980Z,-0.48
2022-12-19T16:47:58.968Z,-0.40
2022-12-19T16:51:19.072Z,-0.62
2022-12-19T16:54:41.987Z,-0.54
2022-12-19T16:58:07.828Z,-0.34
2022-12-19T17:01:28.996Z,-0.15
2022-12-19T17:04:31.967Z,-0.20
2022-12-19T17:07:54.842Z,-0.30
2022-12-19T17:11:34.852Z,-0.36
2022-12-19T17:14:58.938Z,-0.48
2022-12-19T17:18:20.919Z,-0.26
2022-12-19T17:21:23.933Z,-0.22
2022-12-19T17:24:30.861Z,-0.27
2022-12-19T17:27:33.690Z,-0.36
2022-12-19T17:30:54.966Z,-0.18
2022-12-19T17:34:14.501Z,-0.16
2022-12-19T17:37:37.861Z,-0.28
2022-12-19T17:40:56.944Z,-0.18
2022-12-19T17:44:24.968Z,-0.15
2022-12-19T17:47:54.166Z,-0.38
2022-12-19T17:51:14.503Z,-0.34
2022-12-19T17:54:25.341Z,-0.16
2022-12-19T17:57:47.715Z,-0.26
2022-12-19T18:01:24.739Z,-0.20
2022-12-19T18:04:28.496Z,-0.11
2022-12-19T18:07:51.766Z,0.08
2022-12-19T18:11:30.375Z,0.14
2022-12-19T18:14:51.443Z,0.20
2022-12-19T18:18:07.619Z,0.04
2022-12-19T18:21:24.541Z,0.19
2022-12-19T18:24:34.273Z,0.20
2022-12-19T18:27:44.131Z,0.17
2022-12-19T18:31:00.323Z,0.26
2022-12-19T18:34:20.043Z,0.00
2022-12-19T18:37:35.893Z,-0.24
2022-12-19T18:40:52.918Z,-0.22
2022-12-19T18:43:58.966Z,-0.03
2022-12-19T18:47:05.244Z,0.10
2022-12-19T18:50:24.572Z,-0.14
2022-12-19T18:53:38.703Z,-0.51
2022-12-19T18:56:48.325Z,-0.57
2022-12-19T19:00:04.580Z,-0.66
2022-12-19T19:03:38.641Z,-0.57
2022-12-19T19:07:06.639Z,-0.43
2022-12-19T19:10:30.507Z,-0.60
2022-12-19T19:13:55.699Z,-0.56
2022-12-19T19:17:16.702Z,-0.20
2022-12-19T19:20:36.312Z,-0.04
2022-12-19T19:23:59.521Z,-0.07
2022-12-19T19:27:19.460Z,0.03
2022-12-19T19:30:40.614Z,0.09
2022-12-19T19:34:08.456Z,0.11
2022-12-19T19:37:22.578Z,-0.07
2022-12-19T19:40:38.610Z,-0.11
2022-12-19T19:43:58.549Z,-0.08
2022-12-19T19:47:23.396Z,0.01
2022-12-19T19:50:43.371Z,-0.15
2022-12-19T19:53:50.451Z,-0.13
2022-12-19T19:56:57.580Z,-0.19
2022-12-19T20:00:16.095Z,-0.19
2022-12-19T20:03:37.200Z,-0.15
2022-12-19T20:07:00.361Z,0.11
2022-12-19T20:10:25.136Z,0.03
2022-12-19T20:13:35.159Z,0.04
2022-12-19T20:16:58.355Z,0.15
2022-12-19T20:20:28.326Z,0.13
2022-12-19T20:23:51.213Z,0.01
2022-12-19T20:27:14.290Z,0.14
2022-12-19T20:30:36.227Z,-0.14
2022-12-19T20:33:58.195Z,-0.25
2022-12-19T20:37:21.291Z,-0.18
2022-12-19T20:40:43.144Z,-0.44
2022-12-19T20:44:05.141Z,-0.42
2022-12-19T20:47:28.251Z,-0.44
2022-12-19T20:50:51.111Z,-0.56
2022-12-19T20:54:14.505Z,-0.34
2022-12-19T20:57:35.134Z,-0.29
2022-12-19T21:00:57.151Z,-0.35
2022-12-19T21:04:19.253Z,-0.21
2022-12-19T21:07:42.294Z,-0.29
2022-12-19T21:10:52.136Z,-0.11
2022-12-19T21:14:15.133Z,-0.02
2022-12-19T21:17:49.293Z,0.02
2022-12-19T21:21:12.139Z,0.16
2022-12-19T21:24:33.223Z,0.34
2022-12-19T21:27:49.239Z,0.31
2022-12-19T21:31:15.152Z,0.27
2022-12-19T21:34:31.263Z,0.09
2022-12-19T21:37:50.262Z,0.04
2022-12-19T21:41:18.909Z,-0.20
2022-12-19T21:44:38.083Z,-0.20
2022-12-19T21:48:02.174Z,0.00
2022-12-19T21:51:23.200Z,-0.03
2022-12-19T21:54:39.201Z,-0.29
2022-12-19T21:57:46.059Z,-0.04
2022-12-19T22:01:07.901Z,-0.14
2022-12-19T22:04:21.301Z,0.12
2022-12-19T22:07:35.868Z,0.17
2022-12-19T22:10:51.989Z,0.03
2022-12-19T22:14:13.193Z,-0.09
2022-12-19T22:17:28.970Z,-0.23
2022-12-19T22:21:03.936Z,-0.27
2022-12-19T22:24:26.761Z,-0.46
2022-12-19T22:27:42.076Z,-0.55
2022-12-19T22:31:03.021Z,-0.47
2022-12-19T22:34:27.025Z,-0.69
2022-12-19T22:37:47.957Z,-0.74
2022-12-19T22:41:18.907Z,-0.73
2022-12-19T22:44:40.841Z,-0.55
2022-12-19T22:48:02.879Z,-0.69
2022-12-19T22:51:26.885Z,-0.70
2022-12-19T22:54:43.070Z,-0.55
2022-12-19T22:58:02.863Z,-0.79
2022-12-19T23:01:21.806Z,-0.82
2022-12-19T23:04:44.812Z,-0.79
2022-12-19T23:08:17.756Z,-0.77
2022-12-19T23:11:41.920Z,-0.47
2022-12-19T23:15:03.878Z,-0.51
2022-12-19T23:18:24.802Z,-0.47
2022-12-19T23:21:47.980Z,-0.41
2022-12-19T23:25:08.788Z,-0.25
2022-12-19T23:28:31.952Z,-0.29
2022-12-19T23:31:55.783Z,-0.24
2022-12-19T23:35:15.851Z,-0.35
2022-12-19T23:38:35.771Z,-0.33
2022-12-19T23:41:55.926Z,-0.21
2022-12-19T23:44:58.880Z,-0.44
2022-12-19T23:48:06.019Z,-0.33
2022-12-19T23:51:22.507Z,-0.20
2022-12-19T23:54:43.394Z,-0.14
2022-12-19T23:58:09.360Z,-0.17
